sensor_id;sensor_type;location;lat;lon;timestamp;pressure;altitude;pressure_sealevel;temperature;humidity
59043;BME280;44826;51.596;5.624;2024-02-16T00:00:23;100904.88;;;10.14;100.00
59043;BME280;44826;51.596;5.624;2024-02-16T00:02:48;100906.63;;;10.13;100.00
59043;BME280;44826;51.596;5.624;2024-02-16T00:05:13;100906.63;;;10.13;100.00
59043;BME280;44826;51.596;5.624;2024-02-16T00:07:39;100902.34;;;10.11;100.00
59043;BME280;44826;51.596;5.624;2024-02-16T00:10:06;100898.03;;;10.10;100.00
59043;BME280;44826;51.596;5.624;2024-02-16T00:12:32;100898.91;;;10.09;100.00
59043;BME280;44826;51.596;5.624;2024-02-16T00:14:58;100898.91;;;10.09;100.00
59043;BME280;44826;51.596;5.624;2024-02-16T00:17:25;100902.47;;;10.06;100.00
59043;BME280;44826;51.596;5.624;2024-02-16T00:19:54;100899.00;;;10.06;100.00
59043;BME280;44826;51.596;5.624;2024-02-16T00:22:19;100888.59;;;10.06;100.00
59043;BME280;44826;51.596;5.624;2024-02-16T00:24:45;100889.47;;;10.06;100.00
59043;BME280;44826;51.596;5.624;2024-02-16T00:27:11;100892.94;;;10.05;100.00
59043;BME280;44826;51.596;5.624;2024-02-16T00:29:36;100889.53;;;10.03;100.00
59043;BME280;44826;51.596;5.624;2024-02-16T00:32:04;100890.41;;;10.02;100.00
59043;BME280;44826;51.596;5.624;2024-02-16T00:34:31;100878.31;;;10.01;100.00
59043;BME280;44826;51.596;5.624;2024-02-16T00:36:56;100879.19;;;10.00;100.00
59043;BME280;44826;51.596;5.624;2024-02-16T00:39:22;100882.69;;;9.99;100.00
59043;BME280;44826;51.596;5.624;2024-02-16T00:41:47;100883.63;;;9.96;100.00
59043;BME280;44826;51.596;5.624;2024-02-16T00:44:12;100886.22;;;9.95;100.00
59043;BME280;44826;51.596;5.624;2024-02-16T00:46:38;100885.38;;;9.94;100.00
59043;BME280;44826;51.596;5.624;2024-02-16T00:49:03;100884.59;;;9.91;100.00
59043;BME280;44826;51.596;5.624;2024-02-16T00:51:29;100884.69;;;9.86;100.00
59043;BME280;44826;51.596;5.624;2024-02-16T00:53:54;100882.97;;;9.86;100.00
59043;BME280;44826;51.596;5.624;2024-02-16T00:56:20;100881.25;;;9.85;100.00
59043;BME280;44826;51.596;5.624;2024-02-16T00:58:45;100872.59;;;9.85;100.00
59043;BME280;44826;51.596;5.624;2024-02-16T01:01:10;100872.63;;;9.83;100.00
59043;BME280;44826;51.596;5.624;2024-02-16T01:03:38;100877.88;;;9.80;100.00
59043;BME280;44826;51.596;5.624;2024-02-16T01:06:04;100878.78;;;9.79;100.00
59043;BME280;44826;51.596;5.624;2024-02-16T01:08:30;100876.25;;;9.76;100.00
59043;BME280;44826;51.596;5.624;2024-02-16T01:10:56;100878.00;;;9.74;100.00
59043;BME280;44826;51.596;5.624;2024-02-16T01:13:21;100876.34;;;9.73;100.00
59043;BME280;44826;51.596;5.624;2024-02-16T01:15:46;100863.34;;;9.71;100.00
59043;BME280;44826;51.596;5.624;2024-02-16T01:18:12;100867.78;;;9.68;100.00
59043;BME280;44826;51.596;5.624;2024-02-16T01:20:37;100865.19;;;9.66;100.00
59043;BME280;44826;51.596;5.624;2024-02-16T01:23:02;100865.25;;;9.65;100.00
59043;BME280;44826;51.596;5.624;2024-02-16T01:25:30;100863.53;;;9.64;100.00
59043;BME280;44826;51.596;5.624;2024-02-16T01:27:55;100862.75;;;9.60;100.00
59043;BME280;44826;51.596;5.624;2024-02-16T01:30:20;100855.78;;;9.61;100.00
59043;BME280;44826;51.596;5.624;2024-02-16T01:32:46;100858.44;;;9.59;100.00
59043;BME280;44826;51.596;5.624;2024-02-16T01:35:12;100858.44;;;9.57;100.00
59043;BME280;44826;51.596;5.624;2024-02-16T01:37:40;100855.91;;;9.56;100.00
59043;BME280;44826;51.596;5.624;2024-02-16T01:40:07;100853.34;;;9.54;100.00
59043;BME280;44826;51.596;5.624;2024-02-16T01:42:33;100861.13;;;9.54;100.00
59043;BME280;44826;51.596;5.624;2024-02-16T01:44:59;100858.59;;;9.51;100.00
59043;BME280;44826;51.596;5.624;2024-02-16T01:47:24;100847.38;;;9.49;100.00
59043;BME280;44826;51.596;5.624;2024-02-16T01:49:49;100845.69;;;9.48;100.00
59043;BME280;44826;51.596;5.624;2024-02-16T01:52:15;100846.59;;;9.46;100.00
59043;BME280;44826;51.596;5.624;2024-02-16T01:54:40;100843.13;;;9.45;100.00
59043;BME280;44826;51.596;5.624;2024-02-16T01:57:06;100852.69;;;9.43;100.00
59043;BME280;44826;51.596;5.624;2024-02-16T01:59:32;100848.38;;;9.42;100.00
59043;BME280;44826;51.596;5.624;2024-02-16T02:01:59;100838.88;;;9.41;100.00
59043;BME280;44826;51.596;5.624;2024-02-16T02:04:25;100841.50;;;9.41;100.00
59043;BME280;44826;51.596;5.624;2024-02-16T02:06:51;100838.03;;;9.40;100.00
59043;BME280;44826;51.596;5.624;2024-02-16T02:09:16;100838.88;;;9.41;100.00
59043;BME280;44826;51.596;5.624;2024-02-16T02:11:41;100836.34;;;9.39;100.00
59043;BME280;44826;51.596;5.624;2024-02-16T02:14:07;100838.88;;;9.41;100.00
59043;BME280;44826;51.596;5.624;2024-02-16T02:16:32;100833.69;;;9.41;100.00
59043;BME280;44826;51.596;5.624;2024-02-16T02:18:58;100841.53;;;9.39;100.00
59043;BME280;44826;51.596;5.624;2024-02-16T02:21:23;100838.88;;;9.41;100.00
59043;BME280;44826;51.596;5.624;2024-02-16T02:23:48;100837.13;;;9.43;100.00
59043;BME280;44826;51.596;5.624;2024-02-16T02:26:14;100829.38;;;9.41;100.00
59043;BME280;44826;51.596;5.624;2024-02-16T02:28:42;100827.63;;;9.42;100.00
59043;BME280;44826;51.596;5.624;2024-02-16T02:31:07;100825.84;;;9.44;100.00
59043;BME280;44826;51.596;5.624;2024-02-16T02:33:34;100828.44;;;9.44;100.00
59043;BME280;44826;51.596;5.624;2024-02-16T02:35:59;100830.16;;;9.45;100.00
59043;BME280;44826;51.596;5.624;2024-02-16T02:38:24;100818.88;;;9.46;100.00
59043;BME280;44826;51.596;5.624;2024-02-16T02:40:51;100819.66;;;9.50;100.00
59043;BME280;44826;51.596;5.624;2024-02-16T02:43:16;100815.28;;;9.52;100.00
59043;BME280;44826;51.596;5.624;2024-02-16T02:45:43;100815.22;;;9.55;100.00
59043;BME280;44826;51.596;5.624;2024-02-16T02:48:09;100816.06;;;9.57;100.00
59043;BME280;44826;51.596;5.624;2024-02-16T02:50:34;100810.00;;;9.56;100.00
59043;BME280;44826;51.596;5.624;2024-02-16T02:52:59;100808.25;;;9.57;100.00
59043;BME280;44826;51.596;5.624;2024-02-16T02:55:25;100804.72;;;9.60;100.00
59043;BME280;44826;51.596;5.624;2024-02-16T02:57:50;100801.25;;;9.61;100.00
59043;BME280;44826;51.596;5.624;2024-02-16T03:00:16;100803.03;;;9.59;100.00
59043;BME280;44826;51.596;5.624;2024-02-16T03:02:41;100804.78;;;9.58;100.00
59043;BME280;44826;51.596;5.624;2024-02-16T03:05:08;100798.72;;;9.57;100.00
59043;BME280;44826;51.596;5.624;2024-02-16T03:07:34;100803.91;;;9.59;100.00
59043;BME280;44826;51.596;5.624;2024-02-16T03:10:00;100808.25;;;9.57;100.00
59043;BME280;44826;51.596;5.624;2024-02-16T03:12:25;100805.66;;;9.57;100.00
59043;BME280;44826;51.596;5.624;2024-02-16T03:14:51;100802.19;;;9.56;100.00
59043;BME280;44826;51.596;5.624;2024-02-16T03:17:17;100800.53;;;9.55;100.00
59043;BME280;44826;51.596;5.624;2024-02-16T03:19:42;100788.41;;;9.54;100.00
59043;BME280;44826;51.596;5.624;2024-02-16T03:22:07;100787.56;;;9.54;100.00
59043;BME280;44826;51.596;5.624;2024-02-16T03:24:33;100785.00;;;9.52;100.00
59043;BME280;44826;51.596;5.624;2024-02-16T03:26:59;100788.47;;;9.51;100.00
59043;BME280;44826;51.596;5.624;2024-02-16T03:29:25;100794.50;;;9.52;100.00
59043;BME280;44826;51.596;5.624;2024-02-16T03:31:51;100791.09;;;9.51;100.00
59043;BME280;44826;51.596;5.624;2024-02-16T03:34:16;100796.22;;;9.53;100.00
59043;BME280;44826;51.596;5.624;2024-02-16T03:36:42;100791.91;;;9.53;100.00
59043;BME280;44826;51.596;5.624;2024-02-16T03:39:07;100790.13;;;9.55;100.00
59043;BME280;44826;51.596;5.624;2024-02-16T03:41:33;100776.22;;;9.56;100.00
59043;BME280;44826;51.596;5.624;2024-02-16T03:43:59;100777.94;;;9.57;100.00
59043;BME280;44826;51.596;5.624;2024-02-16T03:46:25;100783.94;;;9.60;100.00
59043;BME280;44826;51.596;5.624;2024-02-16T03:48:51;100786.50;;;9.63;100.00
59043;BME280;44826;51.596;5.624;2024-02-16T03:51:16;100782.13;;;9.65;100.00
59043;BME280;44826;51.596;5.624;2024-02-16T03:53:41;100792.47;;;9.66;100.00
59043;BME280;44826;51.596;5.624;2024-02-16T03:56:07;100788.06;;;9.70;100.00
59043;BME280;44826;51.596;5.624;2024-02-16T03:58:32;100795.81;;;9.71;100.00
59043;BME280;44826;51.596;5.624;2024-02-16T04:00:58;100794.00;;;9.75;100.00
59043;BME280;44826;51.596;5.624;2024-02-16T04:03:23;100785.28;;;9.78;100.00
59043;BME280;44826;51.596;5.624;2024-02-16T04:05:49;100782.66;;;9.79;100.00
59043;BME280;44826;51.596;5.624;2024-02-16T04:08:14;100787.78;;;9.82;100.00
59043;BME280;44826;51.596;5.624;2024-02-16T04:10:40;100784.28;;;9.83;100.00
59043;BME280;44826;51.596;5.624;2024-02-16T04:13:06;100784.25;;;9.85;100.00
59043;BME280;44826;51.596;5.624;2024-02-16T04:15:31;100780.81;;;9.84;100.00
59043;BME280;44826;51.596;5.624;2024-02-16T04:17:56;100788.53;;;9.87;100.00
59043;BME280;44826;51.596;5.624;2024-02-16T04:20:22;100790.25;;;9.87;100.00
59043;BME280;44826;51.596;5.624;2024-02-16T04:22:48;100787.66;;;9.87;100.00
59043;BME280;44826;51.596;5.624;2024-02-16T04:25:13;100786.78;;;9.88;100.00
59043;BME280;44826;51.596;5.624;2024-02-16T04:27:38;100786.78;;;9.88;100.00
59043;BME280;44826;51.596;5.624;2024-02-16T04:30:05;100786.78;;;9.88;100.00
59043;BME280;44826;51.596;5.624;2024-02-16T04:32:31;100796.22;;;9.91;100.00
59043;BME280;44826;51.596;5.624;2024-02-16T04:34:57;100791.91;;;9.91;100.00
59043;BME280;44826;51.596;5.624;2024-02-16T04:37:25;100798.81;;;9.91;100.00
59043;BME280;44826;51.596;5.624;2024-02-16T04:39:50;100805.78;;;9.90;100.00
59043;BME280;44826;51.596;5.624;2024-02-16T04:42:16;100809.22;;;9.91;100.00
59043;BME280;44826;51.596;5.624;2024-02-16T04:44:42;100802.38;;;9.88;100.00
59043;BME280;44826;51.596;5.624;2024-02-16T04:47:07;100797.16;;;9.88;100.00
59043;BME280;44826;51.596;5.624;2024-02-16T04:49:32;100801.47;;;9.89;100.00
59043;BME280;44826;51.596;5.624;2024-02-16T04:51:58;100797.16;;;9.88;100.00
59043;BME280;44826;51.596;5.624;2024-02-16T04:54:23;100802.41;;;9.86;100.00
59043;BME280;44826;51.596;5.624;2024-02-16T04:56:49;100800.69;;;9.85;100.00
59043;BME280;44826;51.596;5.624;2024-02-16T04:59:15;100801.53;;;9.87;100.00
59043;BME280;44826;51.596;5.624;2024-02-16T05:01:40;100793.72;;;9.87;100.00
59043;BME280;44826;51.596;5.624;2024-02-16T05:04:06;100798.03;;;9.89;100.00
59043;BME280;44826;51.596;5.624;2024-02-16T05:06:32;100797.09;;;9.91;100.00
59043;BME280;44826;51.596;5.624;2024-02-16T05:08:57;100796.22;;;9.92;100.00
59043;BME280;44826;51.596;5.624;2024-02-16T05:11:23;100796.16;;;9.94;100.00
59043;BME280;44826;51.596;5.624;2024-02-16T05:13:50;100799.59;;;9.96;100.00
59043;BME280;44826;51.596;5.624;2024-02-16T05:16:15;100792.59;;;9.98;100.00
59043;BME280;44826;51.596;5.624;2024-02-16T05:18:42;100793.47;;;9.98;100.00
59043;BME280;44826;51.596;5.624;2024-02-16T05:21:07;100794.25;;;10.02;100.00
59043;BME280;44826;51.596;5.624;2024-02-16T05:23:32;100803.75;;;10.03;100.00
59043;BME280;44826;51.596;5.624;2024-02-16T05:25:58;100797.66;;;10.04;100.00
59043;BME280;44826;51.596;5.624;2024-02-16T05:28:23;100798.50;;;10.05;100.00
59043;BME280;44826;51.596;5.624;2024-02-16T05:30:48;100800.19;;;10.07;100.00
59043;BME280;44826;51.596;5.624;2024-02-16T05:33:13;100795.78;;;10.09;100.00
59043;BME280;44826;51.596;5.624;2024-02-16T05:35:40;100793.16;;;10.11;100.00
59043;BME280;44826;51.596;5.624;2024-02-16T05:38:08;100792.28;;;10.12;100.00
59043;BME280;44826;51.596;5.624;2024-02-16T05:40:46;100793.09;;;10.14;100.00
59043;BME280;44826;51.596;5.624;2024-02-16T05:43:19;100795.59;;;10.17;100.00
59043;BME280;44826;51.596;5.624;2024-02-16T05:45:45;100796.47;;;10.17;100.00
59043;BME280;44826;51.596;5.624;2024-02-16T05:48:11;100787.78;;;10.18;100.00
59043;BME280;44826;51.596;5.624;2024-02-16T05:50:37;100796.41;;;10.21;100.00
59043;BME280;44826;51.596;5.624;2024-02-16T05:53:03;100795.50;;;10.22;100.00
59043;BME280;44826;51.596;5.624;2024-02-16T05:55:28;100795.53;;;10.20;100.00
59043;BME280;44826;51.596;5.624;2024-02-16T05:57:54;100802.41;;;10.23;100.00
59043;BME280;44826;51.596;5.624;2024-02-16T06:00:20;100805.00;;;10.23;100.00
59043;BME280;44826;51.596;5.624;2024-02-16T06:02:46;100805.84;;;10.23;100.00
59043;BME280;44826;51.596;5.624;2024-02-16T06:05:12;100811.06;;;10.23;100.00
59043;BME280;44826;51.596;5.624;2024-02-16T06:07:38;100816.25;;;10.23;100.00
59043;BME280;44826;51.596;5.624;2024-02-16T06:10:04;100821.50;;;10.22;100.00
59043;BME280;44826;51.596;5.624;2024-02-16T06:12:32;100816.31;;;10.22;100.00
59043;BME280;44826;51.596;5.624;2024-02-16T06:14:58;100822.34;;;10.22;100.00
59043;BME280;44826;51.596;5.624;2024-02-16T06:17:23;100831.94;;;10.20;100.00
59043;BME280;44826;51.596;5.624;2024-02-16T06:19:49;100830.19;;;10.21;100.00
59043;BME280;44826;51.596;5.624;2024-02-16T06:22:15;100825.00;;;10.19;100.00
59043;BME280;44826;51.596;5.624;2024-02-16T06:24:40;100831.09;;;10.18;100.00
59043;BME280;44826;51.596;5.624;2024-02-16T06:27:05;100838.00;;;10.19;100.00
59043;BME280;44826;51.596;5.624;2024-02-16T06:29:33;100836.31;;;10.18;100.00
59043;BME280;44826;51.596;5.624;2024-02-16T06:31:59;100832.78;;;10.21;100.00
59043;BME280;44826;51.596;5.624;2024-02-16T06:34:24;100839.69;;;10.22;100.00
59043;BME280;44826;51.596;5.624;2024-02-16T06:36:50;100840.53;;;10.24;100.00
59043;BME280;44826;51.596;5.624;2024-02-16T06:39:16;100838.72;;;10.26;100.00
59043;BME280;44826;51.596;5.624;2024-02-16T06:41:46;100849.03;;;10.30;100.00
59043;BME280;44826;51.596;5.624;2024-02-16T06:44:12;100850.69;;;10.33;100.00
59043;BME280;44826;51.596;5.624;2024-02-16T06:46:38;100851.50;;;10.35;100.00
59043;BME280;44826;51.596;5.624;2024-02-16T06:49:03;100855.78;;;10.39;100.00
59043;BME280;44826;51.596;5.624;2024-02-16T06:51:28;100859.09;;;10.44;100.00
59043;BME280;44826;51.596;5.624;2024-02-16T06:53:54;100861.63;;;10.49;100.00
59043;BME280;44826;51.596;5.624;2024-02-16T06:56:20;100870.13;;;10.54;100.00
59043;BME280;44826;51.596;5.624;2024-02-16T06:58:45;100870.81;;;10.61;100.00
59043;BME280;44826;51.596;5.624;2024-02-16T07:01:14;100874.19;;;10.66;100.00
59043;BME280;44826;51.596;5.624;2024-02-16T07:03:40;100869.72;;;10.71;100.00
59043;BME280;44826;51.596;5.624;2024-02-16T07:06:06;100885.16;;;10.77;100.00
59043;BME280;44826;51.596;5.624;2024-02-16T07:08:37;100878.09;;;10.83;100.00
59043;BME280;44826;51.596;5.624;2024-02-16T07:11:04;100877.97;;;10.87;100.00
59043;BME280;44826;51.596;5.624;2024-02-16T07:13:30;100884.78;;;10.93;100.00
59043;BME280;44826;51.596;5.624;2024-02-16T07:15:55;100888.16;;;10.97;100.00
59043;BME280;44826;51.596;5.624;2024-02-16T07:18:21;100904.53;;;11.00;100.00
59043;BME280;44826;51.596;5.624;2024-02-16T07:20:47;100898.34;;;11.04;100.00
59043;BME280;44826;51.596;5.624;2024-02-16T07:23:12;100903.44;;;11.09;100.00
59043;BME280;44826;51.596;5.624;2024-02-16T07:25:38;100897.28;;;11.12;100.00
59043;BME280;44826;51.596;5.624;2024-02-16T07:28:03;100895.41;;;11.17;100.00
59043;BME280;44826;51.596;5.624;2024-02-16T07:30:30;100897.88;;;11.21;100.00
59043;BME280;44826;51.596;5.624;2024-02-16T07:32:55;100909.09;;;11.25;100.00
59043;BME280;44826;51.596;5.624;2024-02-16T07:35:21;100914.19;;;11.28;100.00
59043;BME280;44826;51.596;5.624;2024-02-16T07:37:48;100918.50;;;11.29;100.00
59043;BME280;44826;51.596;5.624;2024-02-16T07:40:14;100921.03;;;11.32;100.00
59043;BME280;44826;51.596;5.624;2024-02-16T07:42:40;100927.88;;;11.36;100.00
59043;BME280;44826;51.596;5.624;2024-02-16T07:45:06;100926.06;;;11.38;100.00
59043;BME280;44826;51.596;5.624;2024-02-16T07:47:31;100933.75;;;11.43;100.00
59043;BME280;44826;51.596;5.624;2024-02-16T07:49:57;100933.66;;;11.46;100.00
59043;BME280;44826;51.596;5.624;2024-02-16T07:52:22;100931.00;;;11.48;100.00
59043;BME280;44826;51.596;5.624;2024-02-16T07:54:47;100936.16;;;11.51;100.00
59043;BME280;44826;51.596;5.624;2024-02-16T07:57:13;100935.19;;;11.53;100.00
59043;BME280;44826;51.596;5.624;2024-02-16T07:59:38;100936.00;;;11.56;100.00
59043;BME280;44826;51.596;5.624;2024-02-16T08:02:05;100935.97;;;11.57;100.00
59043;BME280;44826;51.596;5.624;2024-02-16T08:04:32;100938.50;;;11.60;100.00
59043;BME280;44826;51.596;5.624;2024-02-16T08:06:57;100940.25;;;11.60;100.00
59043;BME280;44826;51.596;5.624;2024-02-16T08:09:23;100941.94;;;11.61;100.00
59043;BME280;44826;51.596;5.624;2024-02-16T08:11:48;100939.28;;;11.62;100.00
59043;BME280;44826;51.596;5.624;2024-02-16T08:14:14;100941.88;;;11.62;100.00
59043;BME280;44826;51.596;5.624;2024-02-16T08:16:39;100945.38;;;11.63;100.00
59043;BME280;44826;51.596;5.624;2024-02-16T08:19:04;100956.63;;;11.63;100.00
59043;BME280;44826;51.596;5.624;2024-02-16T08:21:30;100961.00;;;11.63;100.00
59043;BME280;44826;51.596;5.624;2024-02-16T08:23:56;100960.13;;;11.62;100.00
59043;BME280;44826;51.596;5.624;2024-02-16T08:26:21;100960.13;;;11.62;100.00
59043;BME280;44826;51.596;5.624;2024-02-16T08:28:46;100964.50;;;11.62;100.00
59043;BME280;44826;51.596;5.624;2024-02-16T08:31:16;100962.78;;;11.61;100.00
59043;BME280;44826;51.596;5.624;2024-02-16T08:33:43;100970.66;;;11.59;100.00
59043;BME280;44826;51.596;5.624;2024-02-16T08:36:09;100977.66;;;11.57;100.00
59043;BME280;44826;51.596;5.624;2024-02-16T08:38:34;100985.50;;;11.57;100.00
59043;BME280;44826;51.596;5.624;2024-02-16T08:41:01;100995.09;;;11.55;100.00
59043;BME280;44826;51.596;5.624;2024-02-16T08:43:28;100994.28;;;11.53;100.00
59043;BME280;44826;51.596;5.624;2024-02-16T08:45:54;100998.59;;;11.54;100.00
59043;BME280;44826;51.596;5.624;2024-02-16T08:48:19;101005.50;;;11.55;100.00
59043;BME280;44826;51.596;5.624;2024-02-16T08:50:45;101005.50;;;11.55;100.00
59043;BME280;44826;51.596;5.624;2024-02-16T08:53:10;101012.44;;;11.56;100.00
59043;BME280;44826;51.596;5.624;2024-02-16T08:55:36;101014.09;;;11.59;100.00
59043;BME280;44826;51.596;5.624;2024-02-16T08:58:01;101008.00;;;11.60;100.00
59043;BME280;44826;51.596;5.624;2024-02-16T09:00:26;101017.38;;;11.65;100.00
59043;BME280;44826;51.596;5.624;2024-02-16T09:02:53;101017.25;;;11.70;100.00
59043;BME280;44826;51.596;5.624;2024-02-16T09:05:19;101018.88;;;11.74;100.00
59043;BME280;44826;51.596;5.624;2024-02-16T09:07:45;101019.63;;;11.79;100.00
59043;BME280;44826;51.596;5.624;2024-02-16T09:10:12;101023.81;;;11.85;100.00
59043;BME280;44826;51.596;5.624;2024-02-16T09:12:39;101024.56;;;11.89;100.00
59043;BME280;44826;51.596;5.624;2024-02-16T09:15:05;101027.06;;;11.93;100.00
59043;BME280;44826;51.596;5.624;2024-02-16T09:17:34;101026.91;;;11.99;100.00
59043;BME280;44826;51.596;5.624;2024-02-16T09:19:59;101045.06;;;12.03;100.00
59043;BME280;44826;51.596;5.624;2024-02-16T09:22:24;101039.78;;;12.06;100.00
59043;BME280;44826;51.596;5.624;2024-02-16T09:24:50;101048.34;;;12.09;100.00
59043;BME280;44826;51.596;5.624;2024-02-16T09:27:18;101046.50;;;12.13;100.00
59043;BME280;44826;51.596;5.624;2024-02-16T09:29:44;101051.69;;;12.14;100.00
59043;BME280;44826;51.596;5.624;2024-02-16T09:32:10;101056.81;;;12.18;100.00
59043;BME280;44826;51.596;5.624;2024-02-16T09:34:35;101061.09;;;12.20;100.00
59043;BME280;44826;51.596;5.624;2024-02-16T09:37:00;101062.72;;;12.24;100.00
59043;BME280;44826;51.596;5.624;2024-02-16T09:39:26;101067.84;;;12.27;100.00
59043;BME280;44826;51.596;5.624;2024-02-16T09:41:53;101059.88;;;12.32;100.00
59043;BME280;44826;51.596;5.624;2024-02-16T09:44:20;101066.72;;;12.36;100.00
59043;BME280;44826;51.596;5.624;2024-02-16T09:46:45;101063.09;;;12.40;100.00
59043;BME280;44826;51.596;5.624;2024-02-16T09:49:11;101085.59;;;12.44;100.00
59043;BME280;44826;51.596;5.624;2024-02-16T09:51:37;101080.34;;;12.46;100.00
59043;BME280;44826;51.596;5.624;2024-02-16T09:54:03;101082.03;;;12.47;100.00
59043;BME280;44826;51.596;5.624;2024-02-16T09:56:28;101090.66;;;12.51;100.00
59043;BME280;44826;51.596;5.624;2024-02-16T09:58:54;101101.84;;;12.54;100.00
59043;BME280;44826;51.596;5.624;2024-02-16T10:01:22;101110.53;;;12.55;100.00
59043;BME280;44826;51.596;5.624;2024-02-16T10:03:49;101100.03;;;12.56;100.00
59043;BME280;44826;51.596;5.624;2024-02-16T10:06:15;101113.00;;;12.59;100.00
59043;BME280;44826;51.596;5.624;2024-02-16T10:08:51;101113.69;;;12.65;100.00
59043;BME280;44826;51.596;5.624;2024-02-16T10:11:18;101112.81;;;12.66;100.00
59043;BME280;44826;51.596;5.624;2024-02-16T10:13:54;101120.63;;;12.66;100.00
59043;BME280;44826;51.596;5.624;2024-02-16T10:16:19;101123.28;;;12.64;100.00
59043;BME280;44826;51.596;5.624;2024-02-16T10:18:44;101130.31;;;12.62;100.00
59043;BME280;44826;51.596;5.624;2024-02-16T10:21:10;101132.09;;;12.62;100.00
59043;BME280;44826;51.596;5.624;2024-02-16T10:23:35;101138.28;;;12.57;100.00
59043;BME280;44826;51.596;5.624;2024-02-16T10:26:01;101134.03;;;12.55;100.00
59043;BME280;44826;51.596;5.624;2024-02-16T10:28:28;101136.63;;;12.55;100.00
59043;BME280;44826;51.596;5.624;2024-02-16T10:30:57;101153.28;;;12.51;100.00
59043;BME280;44826;51.596;5.624;2024-02-16T10:33:24;101153.34;;;12.48;100.00
59043;BME280;44826;51.596;5.624;2024-02-16T10:35:50;101164.84;;;12.42;100.00
59043;BME280;44826;51.596;5.624;2024-02-16T10:38:17;101163.19;;;12.38;100.00
59043;BME280;44826;51.596;5.624;2024-02-16T10:40:43;101167.66;;;12.34;100.00
59043;BME280;44826;51.596;5.624;2024-02-16T10:43:12;101170.28;;;12.33;100.00
59043;BME280;44826;51.596;5.624;2024-02-16T10:45:39;101173.00;;;12.29;100.00
59043;BME280;44826;51.596;5.624;2024-02-16T10:48:05;101183.44;;;12.29;100.00
59043;BME280;44826;51.596;5.624;2024-02-16T10:50:32;101175.69;;;12.26;100.00
59043;BME280;44826;51.596;5.624;2024-02-16T10:53:04;101180.94;;;12.25;100.00
59043;BME280;44826;51.596;5.624;2024-02-16T10:55:33;101187.03;;;12.24;100.00
59043;BME280;44826;51.596;5.624;2024-02-16T10:58:00;101188.81;;;12.23;100.00
59043;BME280;44826;51.596;5.624;2024-02-16T11:00:25;101194.94;;;12.22;100.00
59043;BME280;44826;51.596;5.624;2024-02-16T11:03:02;101196.66;;;12.22;100.00
59043;BME280;44826;51.596;5.624;2024-02-16T11:05:41;101203.66;;;12.21;100.00
59043;BME280;44826;51.596;5.624;2024-02-16T11:08:18;101198.50;;;12.20;100.00
59043;BME280;44826;51.596;5.624;2024-02-16T11:11:13;101202.84;;;12.19;100.00
59043;BME280;44826;51.596;5.624;2024-02-16T11:13:47;101209.81;;;12.19;100.00
59043;BME280;44826;51.596;5.624;2024-02-16T11:16:12;101207.22;;;12.17;100.00
59043;BME280;44826;51.596;5.624;2024-02-16T11:18:42;101223.78;;;12.16;100.00
59043;BME280;44826;51.596;5.624;2024-02-16T11:21:15;101214.22;;;12.15;100.00
59043;BME280;44826;51.596;5.624;2024-02-16T11:23:41;101215.13;;;12.14;100.00
59043;BME280;44826;51.596;5.624;2024-02-16T11:26:11;101215.19;;;12.12;100.00
59043;BME280;44826;51.596;5.624;2024-02-16T11:28:38;101223.06;;;12.11;100.00
59043;BME280;44826;51.596;5.624;2024-02-16T11:31:04;101223.84;;;12.13;100.00
59043;BME280;44826;51.596;5.624;2024-02-16T11:33:30;101229.94;;;12.13;100.00
59043;BME280;44826;51.596;5.624;2024-02-16T11:36:00;101227.31;;;12.13;100.00
59043;BME280;44826;51.596;5.624;2024-02-16T11:38:26;101231.66;;;12.13;100.00
59043;BME280;44826;51.596;5.624;2024-02-16T11:41:00;101228.16;;;12.14;100.00
59043;BME280;44826;51.596;5.624;2024-02-16T11:43:26;101234.22;;;12.16;100.00
59043;BME280;44826;51.596;5.624;2024-02-16T11:45:52;101241.19;;;12.16;100.00
59043;BME280;44826;51.596;5.624;2024-02-16T11:48:22;101240.31;;;12.15;100.00
59043;BME280;44826;51.596;5.624;2024-02-16T11:50:49;101249.84;;;12.16;100.00
59043;BME280;44826;51.596;5.624;2024-02-16T11:53:16;101243.88;;;12.12;100.00
59043;BME280;44826;51.596;5.624;2024-02-16T11:55:46;101256.06;;;12.12;100.00
59043;BME280;44826;51.596;5.624;2024-02-16T11:58:12;101259.53;;;12.12;100.00
59043;BME280;44826;51.596;5.624;2024-02-16T12:00:40;101263.97;;;12.09;100.00
59043;BME280;44826;51.596;5.624;2024-02-16T12:03:06;101266.59;;;12.07;100.00
59043;BME280;44826;51.596;5.624;2024-02-16T12:05:32;101271.00;;;12.05;100.00
59043;BME280;44826;51.596;5.624;2024-02-16T12:07:58;101272.81;;;12.03;100.00
59043;BME280;44826;51.596;5.624;2024-02-16T12:10:24;101273.72;;;12.01;100.00
59043;BME280;44826;51.596;5.624;2024-02-16T12:12:50;101273.72;;;12.01;100.00
59043;BME280;44826;51.596;5.624;2024-02-16T12:15:15;101272.97;;;11.95;100.00
59043;BME280;44826;51.596;5.624;2024-02-16T12:17:43;101271.28;;;11.93;100.00
59043;BME280;44826;51.596;5.624;2024-02-16T12:20:12;101279.06;;;11.94;100.00
59043;BME280;44826;51.596;5.624;2024-02-16T12:22:38;101272.97;;;11.95;100.00
59043;BME280;44826;51.596;5.624;2024-02-16T12:25:04;101278.13;;;11.98;100.00
59043;BME280;44826;51.596;5.624;2024-02-16T12:27:30;101268.56;;;11.99;100.00
59043;BME280;44826;51.596;5.624;2024-02-16T12:29:55;101281.53;;;12.01;100.00
59043;BME280;44826;51.596;5.624;2024-02-16T12:32:20;101285.03;;;12.01;100.00
59043;BME280;44826;51.596;5.624;2024-02-16T12:34:46;101288.53;;;12.00;100.00
59043;BME280;44826;51.596;5.624;2024-02-16T12:37:11;101291.97;;;12.01;100.00